Time;durP1;ratioP1;P1;durP2;ratioP2;P2;SDS_P1;SDS_P2;PMS_P1;PMS_P2;Temp;Humidity;BMP_temperature;BMP_pressure;BME280_temperature;BME280_humidity;BME280_pressure;Samples;Min_cycle;Max_cycle;Signal;HPM_P1;HPM_P2
2023/09/18 00:02:02;;;;;;;0.00;0.00;;;19.50;39.70;;;;;;5073071;28;20663;-59
2023/09/18 00:04:33;;;;;;;0.10;0.10;;;19.50;39.60;;;;;;5074583;28;20579;-59
2023/09/18 00:07:04;;;;;;;0.00;0.00;;;19.50;39.50;;;;;;5074604;28;20323;-58
2023/09/18 00:09:35;;;;;;;0.00;0.00;;;19.50;39.50;;;;;;5074692;28;20206;-58
2023/09/18 00:12:09;;;;;;;0.00;0.00;;;19.50;39.40;;;;;;5072963;28;20289;-58
2023/09/18 00:14:41;;;;;;;0.00;0.00;;;19.50;39.30;;;;;;5073425;28;20229;-59
2023/09/18 00:17:12;;;;;;;0.00;0.00;;;19.60;39.40;;;;;;5073743;28;20202;-57
2023/09/18 00:19:42;;;;;;;0.00;0.00;;;19.60;39.20;;;;;;5070778;28;20191;-57
2023/09/18 00:22:13;;;;;;;0.00;0.00;;;19.60;39.10;;;;;;5071194;28;20206;-60
2023/09/18 00:24:44;;;;;;;0.08;0.08;;;19.60;39.00;;;;;;5071651;28;20682;-58
2023/09/18 00:27:18;;;;;;;0.03;0.03;;;19.70;39.10;;;;;;5072507;28;20759;-57
2023/09/18 00:29:48;;;;;;;0.00;0.00;;;19.70;39.10;;;;;;5071722;28;20202;-57
2023/09/18 00:32:19;;;;;;;0.00;0.00;;;19.70;39.00;;;;;;5073754;28;20198;-59
2023/09/18 00:34:49;;;;;;;0.00;0.00;;;19.70;39.00;;;;;;5073140;28;20203;-58
2023/09/18 00:37:20;;;;;;;0.03;0.03;;;19.70;39.00;;;;;;5073343;28;20195;-58
2023/09/18 00:39:52;;;;;;;0.00;0.00;;;19.70;39.00;;;;;;5073343;28;20567;-57
2023/09/18 00:42:25;;;;;;;0.00;0.00;;;19.70;39.00;;;;;;5071594;28;20205;-59
2023/09/18 00:44:55;;;;;;;0.00;0.00;;;19.80;39.10;;;;;;5072279;28;20195;-59
2023/09/18 00:47:26;;;;;;;0.00;0.00;;;19.80;39.10;;;;;;5072949;28;20225;-59
2023/09/18 00:49:58;;;;;;;0.00;0.00;;;19.80;39.10;;;;;;5073480;28;20369;-59
2023/09/18 00:52:29;;;;;;;0.00;0.00;;;19.80;39.10;;;;;;5073243;28;20195;-60
2023/09/18 00:55:00;;;;;;;0.00;0.00;;;19.80;39.10;;;;;;5073084;28;20195;-57
2023/09/18 00:57:32;;;;;;;0.00;0.00;;;19.90;39.10;;;;;;5072911;28;20646;-57
2023/09/18 01:00:04;;;;;;;0.00;0.00;;;19.90;39.10;;;;;;5072880;28;20215;-57
2023/09/18 01:02:35;;;;;;;0.00;0.00;;;19.90;39.40;;;;;;5070754;28;20217;-58
2023/09/18 01:05:06;;;;;;;0.00;0.00;;;19.90;39.50;;;;;;5072421;28;20226;-58
2023/09/18 01:07:37;;;;;;;0.00;0.00;;;19.90;39.40;;;;;;5069777;28;20226;-59
2023/09/18 01:10:09;;;;;;;0.00;0.00;;;20.00;39.40;;;;;;5069650;28;20218;-58
2023/09/18 01:12:49;;;;;;;0.00;0.00;;;20.00;39.30;;;;;;5071372;28;20806;-59
2023/09/18 01:15:24;;;;;;;0.10;0.10;;;20.00;39.30;;;;;;5072624;28;20187;-59
2023/09/18 01:17:55;;;;;;;0.10;0.10;;;20.10;39.30;;;;;;5070520;28;20198;-58
2023/09/18 01:20:27;;;;;;;0.00;0.00;;;20.10;39.30;;;;;;5071220;28;20218;-60
2023/09/18 01:22:59;;;;;;;0.10;0.10;;;20.10;39.30;;;;;;5071077;28;20197;-57
2023/09/18 01:25:33;;;;;;;0.00;0.00;;;20.10;39.30;;;;;;5071335;28;20198;-59
2023/09/18 01:28:03;;;;;;;0.03;0.03;;;20.10;39.40;;;;;;5071225;28;20230;-59
2023/09/18 01:30:34;;;;;;;0.05;0.05;;;20.10;39.30;;;;;;5070438;28;20221;-58
2023/09/18 01:33:06;;;;;;;0.10;0.10;;;20.20;39.20;;;;;;5070027;28;20195;-58
2023/09/18 01:35:39;;;;;;;0.00;0.00;;;20.20;39.20;;;;;;5069255;28;20667;-58
2023/09/18 01:38:13;;;;;;;0.00;0.00;;;20.20;39.10;;;;;;5069368;28;20199;-58
2023/09/18 01:40:44;;;;;;;0.00;0.00;;;20.20;39.10;;;;;;5071184;28;20222;-58
2023/09/18 01:43:15;;;;;;;0.00;0.00;;;20.30;39.20;;;;;;5068610;28;20191;-58
2023/09/18 01:45:46;;;;;;;0.00;0.00;;;20.30;39.20;;;;;;5071498;28;20191;-58
2023/09/18 01:48:16;;;;;;;0.08;0.08;;;20.30;39.10;;;;;;5060001;28;20574;-58
2023/09/18 01:50:47;;;;;;;0.00;0.00;;;20.30;39.20;;;;;;5070113;28;20298;-57
2023/09/18 01:53:20;;;;;;;0.00;0.00;;;20.30;39.10;;;;;;5059423;28;20222;-58
2023/09/18 01:55:50;;;;;;;0.00;0.00;;;20.40;39.00;;;;;;5070107;28;20195;-57
2023/09/18 01:58:21;;;;;;;0.00;0.00;;;20.40;38.90;;;;;;5071566;28;20230;-56
2023/09/18 02:00:52;;;;;;;0.10;0.10;;;20.40;39.00;;;;;;5070707;28;20215;-57
2023/09/18 02:03:22;;;;;;;0.00;0.00;;;20.40;38.90;;;;;;5072017;28;20191;-57
2023/09/18 02:05:53;;;;;;;0.10;0.10;;;20.50;39.00;;;;;;5071388;28;20206;-57
2023/09/18 02:08:25;;;;;;;0.00;0.00;;;20.50;39.10;;;;;;5064443;28;20234;-57
2023/09/18 02:10:56;;;;;;;0.00;0.00;;;20.50;39.10;;;;;;5063775;28;20221;-56
2023/09/18 02:13:27;;;;;;;0.00;0.00;;;20.50;39.10;;;;;;5069679;28;20256;-57
2023/09/18 02:15:57;;;;;;;0.00;0.00;;;20.50;39.10;;;;;;5070625;28;20190;-57
2023/09/18 02:18:28;;;;;;;0.00;0.00;;;20.60;39.20;;;;;;5071167;28;20293;-57
2023/09/18 02:20:59;;;;;;;0.00;0.00;;;20.60;39.20;;;;;;5070800;28;20226;-57
2023/09/18 02:23:31;;;;;;;0.00;0.00;;;20.60;39.20;;;;;;5070453;28;20642;-57
2023/09/18 02:26:02;;;;;;;0.00;0.00;;;20.60;39.30;;;;;;5071519;28;20600;-57
2023/09/18 02:28:32;;;;;;;0.00;0.00;;;20.70;39.40;;;;;;5069623;28;20737;-58
2023/09/18 02:31:03;;;;;;;0.00;0.00;;;20.70;39.40;;;;;;5070459;28;20327;-57
2023/09/18 02:33:33;;;;;;;0.00;0.00;;;20.70;39.40;;;;;;5072465;28;20195;-58
2023/09/18 02:36:04;;;;;;;0.00;0.00;;;20.70;39.40;;;;;;5070789;28;20703;-57
2023/09/18 02:38:37;;;;;;;0.10;0.10;;;20.80;39.60;;;;;;5071729;28;20203;-57
2023/09/18 02:41:07;;;;;;;0.00;0.00;;;20.80;39.60;;;;;;5071675;28;20215;-57
2023/09/18 02:43:39;;;;;;;0.00;0.00;;;20.80;39.60;;;;;;5072014;28;20620;-57
2023/09/18 02:46:10;;;;;;;0.00;0.00;;;20.90;39.60;;;;;;5071600;28;20698;-57
2023/09/18 02:48:41;;;;;;;0.00;0.00;;;20.90;40.30;;;;;;5070406;28;20256;-57
2023/09/18 02:51:12;;;;;;;0.00;0.00;;;20.90;39.60;;;;;;5068230;28;20215;-57
2023/09/18 02:53:44;;;;;;;0.00;0.00;;;21.00;39.70;;;;;;5070660;28;20191;-57
2023/09/18 02:56:15;;;;;;;0.00;0.00;;;21.00;39.60;;;;;;5070378;28;20195;-57
2023/09/18 02:58:46;;;;;;;0.08;0.08;;;21.00;39.60;;;;;;5068938;28;20226;-58
2023/09/18 03:01:16;;;;;;;0.00;0.00;;;21.10;39.70;;;;;;5071568;28;20218;-57
2023/09/18 03:03:47;;;;;;;0.00;0.00;;;21.10;39.70;;;;;;5069744;28;20194;-55
2023/09/18 03:06:18;;;;;;;0.03;0.03;;;21.20;39.70;;;;;;5070625;28;20209;-58
2023/09/18 03:08:50;;;;;;;0.00;0.00;;;21.20;39.70;;;;;;5070696;28;20211;-58
2023/09/18 03:11:21;;;;;;;0.00;0.00;;;21.20;39.70;;;;;;5068062;28;20206;-57
2023/09/18 03:13:52;;;;;;;0.00;0.00;;;21.20;39.70;;;;;;5068510;28;20206;-57
2023/09/18 03:16:22;;;;;;;0.00;0.00;;;21.30;39.70;;;;;;5069344;28;20681;-57
2023/09/18 03:18:53;;;;;;;0.08;0.08;;;21.30;39.70;;;;;;5070509;28;20198;-58
2023/09/18 03:21:23;;;;;;;0.00;0.00;;;21.40;39.70;;;;;;5070258;28;20558;-58
2023/09/18 03:23:57;;;;;;;0.10;0.10;;;21.40;39.60;;;;;;5069443;28;20199;-58
2023/09/18 03:26:28;;;;;;;0.00;0.00;;;21.40;39.60;;;;;;5069973;28;20198;-58
2023/09/18 03:28:58;;;;;;;0.00;0.00;;;21.40;39.50;;;;;;5068780;28;20217;-57
2023/09/18 03:31:29;;;;;;;0.00;0.00;;;21.50;39.40;;;;;;5069087;28;20264;-57
2023/09/18 03:34:00;;;;;;;0.00;0.00;;;21.50;39.40;;;;;;5069014;28;20277;-57
2023/09/18 03:36:31;;;;;;;0.00;0.00;;;21.60;39.40;;;;;;5070017;28;20199;-57
2023/09/18 03:39:04;;;;;;;0.00;0.00;;;21.60;39.40;;;;;;5068634;28;20206;-57
2023/09/18 03:41:35;;;;;;;0.00;0.00;;;21.60;39.50;;;;;;5070355;28;20564;-58
2023/09/18 03:44:05;;;;;;;0.00;0.00;;;21.60;39.40;;;;;;5068083;28;20194;-57
2023/09/18 03:46:36;;;;;;;0.00;0.00;;;21.70;39.40;;;;;;5069523;28;20199;-57
2023/09/18 03:49:07;;;;;;;0.00;0.00;;;21.70;39.40;;;;;;5068976;28;20194;-58
2023/09/18 03:51:38;;;;;;;0.00;0.00;;;21.70;39.30;;;;;;5063501;28;20226;-59
2023/09/18 03:54:10;;;;;;;0.00;0.00;;;21.80;39.90;;;;;;5068199;28;20586;-58
2023/09/18 03:56:41;;;;;;;0.00;0.00;;;21.80;39.30;;;;;;5067885;28;20198;-57
2023/09/18 03:59:11;;;;;;;0.00;0.00;;;21.80;39.20;;;;;;5069159;28;20199;-57
2023/09/18 04:01:42;;;;;;;0.05;0.05;;;21.90;39.10;;;;;;5066562;28;20237;-58
2023/09/18 04:04:13;;;;;;;0.00;0.00;;;21.90;39.10;;;;;;5069035;28;20191;-58
2023/09/18 04:06:46;;;;;;;0.05;0.05;;;22.00;39.10;;;;;;5070596;28;20206;-57
2023/09/18 04:09:18;;;;;;;0.00;0.00;;;22.00;39.00;;;;;;5064408;28;20200;-58
2023/09/18 04:11:49;;;;;;;0.10;0.10;;;22.00;39.10;;;;;;5071374;28;20218;-58
2023/09/18 04:14:19;;;;;;;0.08;0.08;;;22.00;39.00;;;;;;5070758;28;20198;-58
2023/09/18 04:16:50;;;;;;;0.10;0.10;;;22.10;39.10;;;;;;5070941;28;20195;-58
2023/09/18 04:19:20;;;;;;;0.00;0.00;;;22.10;39.10;;;;;;5072317;28;20195;-58
2023/09/18 04:21:51;;;;;;;0.00;0.00;;;22.10;38.90;;;;;;5071024;28;20712;-58
2023/09/18 04:24:24;;;;;;;0.00;0.00;;;22.20;38.70;;;;;;5072889;28;20646;-58
2023/09/18 04:26:54;;;;;;;0.00;0.00;;;22.20;38.40;;;;;;5071494;28;20199;-58
2023/09/18 04:29:25;;;;;;;0.00;0.00;;;22.20;38.30;;;;;;5070767;28;20203;-58
2023/09/18 04:31:56;;;;;;;0.00;0.00;;;22.20;38.20;;;;;;5073755;28;20596;-58
2023/09/18 04:34:26;;;;;;;0.00;0.00;;;22.30;38.20;;;;;;5073461;28;20198;-58
2023/09/18 04:36:57;;;;;;;0.00;0.00;;;22.30;38.10;;;;;;5072885;28;20226;-58
2023/09/18 04:39:30;;;;;;;0.00;0.00;;;22.30;38.10;;;;;;5071002;28;20195;-57
2023/09/18 04:42:00;;;;;;;0.00;0.00;;;22.30;38.10;;;;;;5071983;28;20210;-58
2023/09/18 04:44:31;;;;;;;0.00;0.00;;;22.30;38.40;;;;;;5071349;28;20194;-58
2023/09/18 04:47:02;;;;;;;0.10;0.10;;;22.40;38.00;;;;;;5071704;28;20203;-58
2023/09/18 04:49:34;;;;;;;0.00;0.00;;;22.40;37.90;;;;;;5071941;28;20248;-58
2023/09/18 04:52:05;;;;;;;0.00;0.00;;;22.40;37.80;;;;;;5070916;28;20235;-58
2023/09/18 04:54:37;;;;;;;0.00;0.00;;;22.40;37.70;;;;;;5069671;28;20228;-57
2023/09/18 04:57:08;;;;;;;0.00;0.00;;;22.40;37.60;;;;;;5070867;28;20568;-58
2023/09/18 04:59:38;;;;;;;0.05;0.05;;;22.50;37.50;;;;;;5069737;28;20199;-58
2023/09/18 05:02:09;;;;;;;0.00;0.00;;;22.50;37.40;;;;;;5071929;28;20557;-57
2023/09/18 05:04:40;;;;;;;0.00;0.00;;;22.50;37.40;;;;;;5071119;28;20289;-58
2023/09/18 05:07:11;;;;;;;0.00;0.00;;;22.50;37.40;;;;;;5071081;28;20404;-58
2023/09/18 05:09:43;;;;;;;0.00;0.00;;;22.60;37.50;;;;;;5069462;28;20659;-58
2023/09/18 05:12:15;;;;;;;0.00;0.00;;;22.60;37.40;;;;;;5069493;28;20693;-58
2023/09/18 05:14:46;;;;;;;0.00;0.00;;;22.60;37.50;;;;;;5070782;28;20552;-58
2023/09/18 05:17:18;;;;;;;0.00;0.00;;;22.60;37.70;;;;;;5067272;28;20619;-59
2023/09/18 05:19:49;;;;;;;0.00;0.00;;;22.70;37.70;;;;;;5050977;28;20196;-58
2023/09/18 05:22:19;;;;;;;0.08;0.08;;;22.70;37.60;;;;;;5061151;28;20565;-57
2023/09/18 05:24:52;;;;;;;0.03;0.03;;;22.70;37.30;;;;;;5071425;28;20611;-58
2023/09/18 05:27:25;;;;;;;0.00;0.00;;;22.70;37.40;;;;;;5064806;28;20195;-58
2023/09/18 05:29:55;;;;;;;0.00;0.00;;;22.70;37.40;;;;;;5070741;28;20218;-58
2023/09/18 05:32:26;;;;;;;0.00;0.00;;;22.70;37.40;;;;;;5065342;28;20681;-57
2023/09/18 05:35:01;;;;;;;0.00;0.00;;;22.70;37.50;;;;;;5071358;28;20194;-58
2023/09/18 05:37:32;;;;;;;0.00;0.00;;;22.70;37.50;;;;;;5066025;28;20672;-57
2023/09/18 05:40:05;;;;;;;0.00;0.00;;;22.70;37.60;;;;;;5070714;28;20214;-58
2023/09/18 05:42:36;;;;;;;0.00;0.00;;;22.70;37.80;;;;;;5071525;28;20241;-58
2023/09/18 05:45:07;;;;;;;0.00;0.00;;;22.80;38.00;;;;;;5070551;28;20530;-58
2023/09/18 05:47:38;;;;;;;0.00;0.00;;;22.70;38.10;;;;;;5069292;28;20229;-58
2023/09/18 05:50:09;;;;;;;0.00;0.00;;;22.80;38.10;;;;;;5069101;28;20250;-58
2023/09/18 05:52:40;;;;;;;0.00;0.00;;;22.70;37.90;;;;;;5070051;28;20651;-58
2023/09/18 05:55:13;;;;;;;0.00;0.00;;;22.80;37.80;;;;;;5071076;28;20635;-58
2023/09/18 05:57:43;;;;;;;0.00;0.00;;;22.70;37.70;;;;;;5071652;28;20564;-58
2023/09/18 06:00:17;;;;;;;0.00;0.00;;;22.70;37.60;;;;;;5070516;28;20215;-58
2023/09/18 06:02:48;;;;;;;0.00;0.00;;;22.70;37.60;;;;;;5069249;28;20202;-58
2023/09/18 06:05:21;;;;;;;0.00;0.00;;;22.70;37.60;;;;;;5070383;28;20203;-57
2023/09/18 06:07:52;;;;;;;0.00;0.00;;;22.70;37.60;;;;;;5069564;28;20708;-58
2023/09/18 06:10:24;;;;;;;0.00;0.00;;;22.70;37.40;;;;;;5069227;28;20214;-57
2023/09/18 06:12:55;;;;;;;0.00;0.00;;;22.70;37.50;;;;;;5067966;28;20190;-58
2023/09/18 06:15:25;;;;;;;0.00;0.00;;;22.60;37.20;;;;;;5061415;28;20626;-58
2023/09/18 06:17:56;;;;;;;0.00;0.00;;;22.70;37.20;;;;;;5068624;28;20199;-57
2023/09/18 06:20:26;;;;;;;0.00;0.00;;;22.60;37.20;;;;;;5069405;28;20215;-57
2023/09/18 06:22:57;;;;;;;0.10;0.10;;;22.60;37.10;;;;;;5070112;28;20187;-57
2023/09/18 06:25:31;;;;;;;0.00;0.00;;;22.60;36.40;;;;;;5071623;28;20198;-58
2023/09/18 06:28:03;;;;;;;0.00;0.00;;;22.50;34.30;;;;;;5067299;28;20268;-58
2023/09/18 06:30:41;;;;;;;0.10;0.10;;;22.40;33.30;;;;;;5068849;28;20221;-58
2023/09/18 06:33:12;;;;;;;0.00;0.00;;;22.30;33.00;;;;;;5070203;28;20209;-58
2023/09/18 06:35:42;;;;;;;0.00;0.00;;;22.20;33.20;;;;;;5070429;28;20195;-58
2023/09/18 06:38:15;;;;;;;0.00;0.00;;;22.20;33.40;;;;;;5071549;28;20209;-58
2023/09/18 06:40:47;;;;;;;0.00;0.00;;;22.10;33.60;;;;;;5068758;28;20625;-59
2023/09/18 06:43:18;;;;;;;0.00;0.00;;;22.10;33.60;;;;;;5064670;28;20194;-58
2023/09/18 06:45:48;;;;;;;0.00;0.00;;;22.00;33.80;;;;;;5063299;28;20194;-58
2023/09/18 06:48:19;;;;;;;0.10;0.10;;;22.00;34.10;;;;;;5069874;28;20229;-59
2023/09/18 06:50:50;;;;;;;0.00;0.00;;;22.00;34.30;;;;;;5070271;28;20736;-58
2023/09/18 06:53:20;;;;;;;0.00;0.00;;;21.90;34.50;;;;;;5069451;28;20442;-58
2023/09/18 06:55:53;;;;;;;0.00;0.00;;;21.90;34.80;;;;;;5070172;28;20206;-58
2023/09/18 06:58:23;;;;;;;0.00;0.00;;;21.90;35.00;;;;;;5070702;28;20667;-58
2023/09/18 07:00:54;;;;;;;0.00;0.00;;;21.90;35.10;;;;;;5069775;28;20219;-58
2023/09/18 07:03:25;;;;;;;0.00;0.00;;;21.90;35.20;;;;;;5070329;28;20203;-59
2023/09/18 07:05:56;;;;;;;0.03;0.03;;;21.90;35.20;;;;;;5070122;28;20754;-58
2023/09/18 07:08:26;;;;;;;0.00;0.00;;;21.90;35.20;;;;;;5069481;28;20309;-58
2023/09/18 07:10:59;;;;;;;0.00;0.00;;;21.80;35.20;;;;;;5070480;28;20218;-58
2023/09/18 07:13:29;;;;;;;0.10;0.10;;;21.90;35.40;;;;;;5070619;28;20199;-58
2023/09/18 07:16:00;;;;;;;0.00;0.00;;;21.80;35.30;;;;;;5049325;28;20207;-58
2023/09/18 07:18:31;;;;;;;0.00;0.00;;;21.80;35.40;;;;;;5051710;28;20282;-59
2023/09/18 07:21:01;;;;;;;0.00;0.00;;;21.80;35.40;;;;;;5070401;28;20338;-58
2023/09/18 07:23:32;;;;;;;0.00;0.00;;;21.80;35.50;;;;;;5069070;28;20569;-58
2023/09/18 07:26:04;;;;;;;0.00;0.00;;;21.80;35.60;;;;;;5069957;28;20658;-58
2023/09/18 07:28:35;;;;;;;0.00;0.00;;;21.70;35.60;;;;;;5070335;28;20229;-58
2023/09/18 07:31:12;;;;;;;0.00;0.00;;;21.70;35.60;;;;;;5071129;28;20749;-58
2023/09/18 07:33:42;;;;;;;0.00;0.00;;;21.70;35.80;;;;;;5070586;28;20248;-58
2023/09/18 07:36:15;;;;;;;0.03;0.03;;;21.60;35.80;;;;;;5070553;28;20206;-58
2023/09/18 07:38:45;;;;;;;0.00;0.00;;;21.60;35.80;;;;;;5069321;28;20315;-59
2023/09/18 07:41:19;;;;;;;0.00;0.00;;;21.60;35.90;;;;;;5072369;28;20219;-58
2023/09/18 07:43:49;;;;;;;0.00;0.00;;;21.60;36.10;;;;;;5072998;28;20586;-58
2023/09/18 07:46:20;;;;;;;0.00;0.00;;;21.60;36.10;;;;;;5074362;28;20186;-58
2023/09/18 07:48:50;;;;;;;0.00;0.00;;;21.60;36.20;;;;;;5074559;28;20223;-58
2023/09/18 07:51:21;;;;;;;0.00;0.00;;;21.50;36.10;;;;;;5074597;28;20218;-57
2023/09/18 07:53:52;;;;;;;0.03;0.03;;;21.50;36.20;;;;;;5074603;28;20190;-58
2023/09/18 07:56:24;;;;;;;0.10;0.10;;;21.50;36.20;;;;;;5074859;28;20203;-58
2023/09/18 07:58:55;;;;;;;0.00;0.00;;;21.50;36.30;;;;;;5074697;28;20601;-56
2023/09/18 08:01:25;;;;;;;0.00;0.00;;;21.50;36.30;;;;;;5073575;28;20220;-58
2023/09/18 08:03:56;;;;;;;0.00;0.00;;;21.40;36.30;;;;;;5073925;28;20198;-58
2023/09/18 08:06:28;;;;;;;0.00;0.00;;;21.50;36.40;;;;;;5074150;28;20202;-57
2023/09/18 08:08:58;;;;;;;0.00;0.00;;;21.40;36.40;;;;;;5074412;28;20322;-58
2023/09/18 08:11:31;;;;;;;0.00;0.00;;;21.40;36.40;;;;;;5073526;28;20226;-58
2023/09/18 08:14:02;;;;;;;0.00;0.00;;;21.40;36.50;;;;;;5072144;28;20195;-58
2023/09/18 08:16:33;;;;;;;0.00;0.00;;;21.40;36.60;;;;;;5072808;28;20202;-57
2023/09/18 08:19:05;;;;;;;0.00;0.00;;;21.30;36.50;;;;;;5069610;28;20209;-54
2023/09/18 08:21:35;;;;;;;0.00;0.00;;;21.30;36.60;;;;;;5053510;28;20223;-58
2023/09/18 08:24:06;;;;;;;0.00;0.00;;;21.30;36.70;;;;;;5065348;28;20654;-57
2023/09/18 08:26:39;;;;;;;0.10;0.10;;;21.30;36.70;;;;;;5073766;28;20425;-58
2023/09/18 08:29:09;;;;;;;0.00;0.00;;;21.30;36.80;;;;;;5055161;28;20223;-57
2023/09/18 08:31:40;;;;;;;0.00;0.00;;;21.20;36.80;;;;;;5068616;28;20241;-57
2023/09/18 08:34:10;;;;;;;0.00;0.00;;;21.20;36.90;;;;;;5084838;22;20186;-47
2023/09/18 08:36:41;;;;;;;0.00;0.00;;;21.20;37.00;;;;;;5072714;28;20195;-48
2023/09/18 08:39:12;;;;;;;0.00;0.00;;;21.20;37.00;;;;;;5073129;28;20218;-47
2023/09/18 08:41:48;;;;;;;0.00;0.00;;;21.20;37.00;;;;;;5073445;28;20246;-48
2023/09/18 08:44:19;;;;;;;0.00;0.00;;;21.10;37.00;;;;;;5062798;28;20291;-48
2023/09/18 08:46:50;;;;;;;0.00;0.00;;;21.10;37.10;;;;;;5071838;28;20199;-47
2023/09/18 08:49:22;;;;;;;0.00;0.00;;;21.10;37.10;;;;;;5071498;28;20712;-48
2023/09/18 08:51:53;;;;;;;0.00;0.00;;;21.10;37.20;;;;;;5072522;28;20245;-47
2023/09/18 08:54:25;;;;;;;0.10;0.10;;;21.00;37.20;;;;;;5052358;28;20246;-47
2023/09/18 08:56:58;;;;;;;0.00;0.00;;;21.00;37.20;;;;;;5072275;28;20694;-47
2023/09/18 08:59:29;;;;;;;0.00;0.00;;;21.00;37.30;;;;;;5072974;28;20649;-48
2023/09/18 09:02:00;;;;;;;0.00;0.00;;;21.00;37.30;;;;;;5067802;28;20620;-47
2023/09/18 09:04:31;;;;;;;0.00;0.00;;;20.90;37.30;;;;;;5072472;28;20217;-47
2023/09/18 09:07:01;;;;;;;0.10;0.10;;;20.90;37.40;;;;;;5071827;28;20666;-46
2023/09/18 09:09:32;;;;;;;0.00;0.00;;;20.90;37.40;;;;;;5071767;28;20686;-48
2023/09/18 09:12:05;;;;;;;0.00;0.00;;;20.90;37.50;;;;;;5072924;28;20716;-48
2023/09/18 09:14:36;;;;;;;0.00;0.00;;;20.90;37.50;;;;;;5072319;28;20615;-48
2023/09/18 09:17:07;;;;;;;0.10;0.10;;;20.80;37.50;;;;;;5072449;28;20585;-47
2023/09/18 09:19:42;;;;;;;0.00;0.00;;;20.80;37.60;;;;;;5064570;28;20202;-48
2023/09/18 09:22:21;;;;;;;0.08;0.08;;;20.80;37.60;;;;;;5063492;28;20187;-48
2023/09/18 09:24:51;;;;;;;0.05;0.05;;;20.80;37.60;;;;;;5071005;28;20659;-47
2023/09/18 09:27:24;;;;;;;0.00;0.00;;;20.70;37.60;;;;;;5072043;28;20202;-48
2023/09/18 09:30:04;;;;;;;0.00;0.00;;;20.80;37.70;;;;;;5071675;28;20234;-47
2023/09/18 09:32:36;;;;;;;0.00;0.00;;;20.70;37.70;;;;;;5070719;28;20209;-48
2023/09/18 09:35:07;;;;;;;0.00;0.00;;;20.70;37.80;;;;;;5084200;22;20226;-56
2023/09/18 09:37:38;;;;;;;0.00;0.00;;;20.70;37.90;;;;;;5068030;28;20201;-57
2023/09/18 09:40:10;;;;;;;0.00;0.00;;;20.60;37.80;;;;;;5071915;28;20237;-55
2023/09/18 09:42:45;;;;;;;0.00;0.00;;;20.60;37.90;;;;;;5071716;28;20229;-54
2023/09/18 09:45:17;;;;;;;0.00;0.00;;;20.60;38.00;;;;;;5070156;28;20616;-56
2023/09/18 09:47:48;;;;;;;0.00;0.00;;;20.60;38.10;;;;;;5070502;28;20218;-56
2023/09/18 09:50:19;;;;;;;0.00;0.00;;;20.60;38.10;;;;;;5071548;28;20231;-55
2023/09/18 09:52:51;;;;;;;0.00;0.00;;;20.60;38.10;;;;;;5070122;28;20285;-57
2023/09/18 09:55:30;;;;;;;0.10;0.10;;;20.50;38.10;;;;;;5069476;28;20201;-57
2023/09/18 09:58:03;;;;;;;0.10;0.10;;;20.50;38.20;;;;;;5061335;28;20278;-54
2023/09/18 10:00:42;;;;;;;0.00;0.00;;;20.50;38.80;;;;;;5071820;28;20214;-55
2023/09/18 10:03:14;;;;;;;0.10;0.10;;;20.50;38.20;;;;;;5069289;28;20241;-55
2023/09/18 10:05:46;;;;;;;0.00;0.00;;;20.50;38.30;;;;;;5070450;28;20195;-56
2023/09/18 10:08:19;;;;;;;0.00;0.00;;;20.40;38.30;;;;;;5069403;28;20198;-56
2023/09/18 10:10:51;;;;;;;0.00;0.00;;;20.40;38.30;;;;;;5069175;28;20231;-53
2023/09/18 10:13:26;;;;;;;0.10;0.10;;;20.40;38.30;;;;;;5063440;28;20212;-56
2023/09/18 10:16:00;;;;;;;0.08;0.08;;;20.40;38.40;;;;;;5069664;28;20209;-51
2023/09/18 10:18:40;;;;;;;0.00;0.00;;;20.40;38.40;;;;;;5068877;28;20608;-58
2023/09/18 10:21:20;;;;;;;0.00;0.00;;;20.30;38.40;;;;;;5069085;28;20583;-56
2023/09/18 10:24:01;;;;;;;0.00;0.00;;;20.30;38.40;;;;;;5070216;28;20226;-57
2023/09/18 10:26:33;;;;;;;0.00;0.00;;;20.30;38.50;;;;;;5070215;28;20194;-55
2023/09/18 10:29:11;;;;;;;0.00;0.00;;;20.30;38.50;;;;;;5068134;28;20244;-58
2023/09/18 10:31:43;;;;;;;0.05;0.05;;;20.20;38.50;;;;;;5053056;28;20215;-57
2023/09/18 10:34:15;;;;;;;0.00;0.00;;;20.20;38.60;;;;;;5070675;28;20199;-57
2023/09/18 10:36:48;;;;;;;0.10;0.10;;;20.20;38.60;;;;;;5070763;28;20198;-53
2023/09/18 10:39:19;;;;;;;0.00;0.00;;;20.20;38.70;;;;;;5070605;28;20205;-53
2023/09/18 10:41:54;;;;;;;0.00;0.00;;;20.20;38.70;;;;;;5069167;28;20214;-55
2023/09/18 10:44:27;;;;;;;0.10;0.10;;;20.20;38.70;;;;;;5068757;28;20191;-58
2023/09/18 10:46:59;;;;;;;0.00;0.00;;;20.20;38.70;;;;;;5068195;28;20281;-52
2023/09/18 10:49:29;;;;;;;0.00;0.00;;;20.10;38.70;;;;;;5069561;28;20250;-54
2023/09/18 10:52:00;;;;;;;0.10;0.10;;;20.10;38.70;;;;;;5068163;28;20824;-55
2023/09/18 10:54:33;;;;;;;0.00;0.00;;;20.10;39.30;;;;;;5069432;28;20550;-55
2023/09/18 10:57:03;;;;;;;0.00;0.00;;;20.10;38.80;;;;;;5068587;28;20217;-52
2023/09/18 10:59:36;;;;;;;0.00;0.00;;;20.10;38.80;;;;;;5068791;28;20685;-54
2023/09/18 11:02:07;;;;;;;0.00;0.00;;;20.00;38.80;;;;;;5070696;28;20544;-53
2023/09/18 11:04:38;;;;;;;0.00;0.00;;;20.00;38.90;;;;;;5070340;28;20203;-55
2023/09/18 11:07:09;;;;;;;0.00;0.00;;;20.00;38.90;;;;;;5068758;28;20194;-56
2023/09/18 11:09:47;;;;;;;0.00;0.00;;;20.00;38.90;;;;;;5068804;28;20297;-58
2023/09/18 11:12:19;;;;;;;0.05;0.05;;;20.00;38.90;;;;;;5067330;28;20252;-56
2023/09/18 11:15:02;;;;;;;0.00;0.00;;;19.90;38.90;;;;;;5067905;28;20644;-58
2023/09/18 11:17:37;;;;;;;0.10;0.10;;;20.00;39.60;;;;;;5067574;28;20589;-59
2023/09/18 11:20:09;;;;;;;0.10;0.10;;;19.90;39.00;;;;;;5067636;28;20690;-58
2023/09/18 11:22:40;;;;;;;0.00;0.00;;;19.90;39.00;;;;;;5068237;28;20191;-57
2023/09/18 11:25:34;;;;;;;0.00;0.00;;;19.90;39.00;;;;;;5067964;28;20700;-57
2023/09/18 11:28:07;;;;;;;0.00;0.00;;;19.90;39.00;;;;;;5062898;28;20280;-56
2023/09/18 11:30:41;;;;;;;0.00;0.00;;;19.90;39.00;;;;;;5068131;28;20232;-57
2023/09/18 11:33:12;;;;;;;0.00;0.00;;;19.90;39.10;;;;;;5062646;28;20241;-52
2023/09/18 11:35:53;;;;;;;0.00;0.00;;;19.80;39.10;;;;;;5069995;28;20264;-58
2023/09/18 11:38:24;;;;;;;0.00;0.00;;;19.80;39.00;;;;;;5069780;28;20248;-55
2023/09/18 11:40:57;;;;;;;0.00;0.00;;;19.80;39.10;;;;;;5064343;28;20649;-57
2023/09/18 11:43:29;;;;;;;0.10;0.10;;;19.80;39.10;;;;;;5065777;28;20226;-57
2023/09/18 11:46:04;;;;;;;0.10;0.10;;;19.80;39.10;;;;;;5069095;28;20243;-54
2023/09/18 11:48:36;;;;;;;0.00;0.00;;;19.70;39.10;;;;;;5067547;28;20194;-52
2023/09/18 11:51:10;;;;;;;0.00;0.00;;;19.70;39.10;;;;;;5067096;28;20226;-56
2023/09/18 11:53:43;;;;;;;0.03;0.03;;;19.70;39.20;;;;;;5068592;28;20267;-52
2023/09/18 11:56:17;;;;;;;0.10;0.10;;;19.70;39.20;;;;;;5069402;28;20750;-56
2023/09/18 11:58:51;;;;;;;0.05;0.05;;;19.70;39.20;;;;;;5068490;28;20195;-58
2023/09/18 12:01:24;;;;;;;0.00;0.00;;;19.70;39.30;;;;;;5068523;28;20222;-56
2023/09/18 12:04:02;;;;;;;0.00;0.00;;;19.70;39.30;;;;;;5069797;28;20285;-58
2023/09/18 12:06:33;;;;;;;0.00;0.00;;;19.60;39.30;;;;;;5066729;28;20205;-56
2023/09/18 12:09:03;;;;;;;0.00;0.00;;;19.60;39.30;;;;;;5068405;28;20191;-54
2023/09/18 12:11:35;;;;;;;0.00;0.00;;;19.60;39.40;;;;;;5068876;28;20566;-60
2023/09/18 12:14:06;;;;;;;0.00;0.00;;;19.60;39.40;;;;;;5069358;28;20191;-57
2023/09/18 12:16:42;;;;;;;0.00;0.00;;;19.60;39.40;;;;;;5067837;28;20277;-52
2023/09/18 12:19:20;;;;;;;0.10;0.10;;;19.60;39.40;;;;;;5068010;28;20191;-56
2023/09/18 12:21:51;;;;;;;0.00;0.00;;;19.50;39.40;;;;;;5068757;28;20254;-57
2023/09/18 12:24:25;;;;;;;0.00;0.00;;;19.60;39.40;;;;;;5069600;28;20207;-58
2023/09/18 12:26:56;;;;;;;0.00;0.00;;;19.50;39.40;;;;;;5070381;28;20206;-56
2023/09/18 12:29:27;;;;;;;0.10;0.10;;;19.50;39.40;;;;;;5072689;28;20191;-56
2023/09/18 12:32:02;;;;;;;0.03;0.03;;;19.50;39.40;;;;;;5072053;28;20683;-57
2023/09/18 12:34:33;;;;;;;0.00;0.00;;;19.50;39.50;;;;;;5073809;28;20236;-57
2023/09/18 12:37:05;;;;;;;0.03;0.03;;;19.50;39.50;;;;;;5073568;28;20248;-55
2023/09/18 12:39:36;;;;;;;0.10;0.10;;;19.40;39.40;;;;;;5070750;28;20210;-57
2023/09/18 12:42:07;;;;;;;0.00;0.00;;;19.40;39.50;;;;;;5072710;28;20195;-58
2023/09/18 12:44:38;;;;;;;0.10;0.10;;;19.40;39.50;;;;;;5071101;28;20210;-57
2023/09/18 12:47:11;;;;;;;0.05;0.05;;;19.40;39.50;;;;;;5072035;28;20186;-59
2023/09/18 12:49:41;;;;;;;0.00;0.00;;;19.40;39.50;;;;;;5070891;28;20217;-58
2023/09/18 12:52:13;;;;;;;0.00;0.00;;;19.40;39.50;;;;;;5070212;28;20260;-55
2023/09/18 12:54:45;;;;;;;0.00;0.00;;;19.40;39.60;;;;;;5072166;28;20205;-57
2023/09/18 12:57:19;;;;;;;0.00;0.00;;;19.30;39.60;;;;;;5071599;28;20199;-52
2023/09/18 12:59:51;;;;;;;0.00;0.00;;;19.30;39.60;;;;;;5072131;28;20206;-57
2023/09/18 13:02:24;;;;;;;0.00;0.00;;;19.30;39.60;;;;;;5070028;28;20210;-55
2023/09/18 13:04:58;;;;;;;0.00;0.00;;;19.30;39.60;;;;;;5071790;28;20230;-57
2023/09/18 13:07:29;;;;;;;0.00;0.00;;;19.30;39.60;;;;;;5071389;28;20240;-55
2023/09/18 13:10:03;;;;;;;0.00;0.00;;;19.30;39.60;;;;;;5070994;28;20245;-56
2023/09/18 13:12:50;;;;;;;0.03;0.03;;;19.30;39.60;;;;;;5071515;28;20650;-56